Portada
METAR-TAF:

METAR-TAF

Aeroports :

Xiraz, Iran

latitud: 29-32N, longitud: 052-35E, altitud: 1486 m

Observació

L'informe es va fer fa 19 minuts, a les 07:00 UTC
Vent calma
Temperatura 31°C
Humitat 15%
Pressió 1019 hPa
Visibilitat: 6000 m

METAR: OISS 190700Z 00000KT 6000 NSC 31/01 Q1018 A3008

Hora: 11:49 (07:19 UTC)

Pronòstic

L'informe es va fer fa 1 hora i 49 minuts, a les 05:30 UTC
Pronòstic vàlid del 19 a les 06 UTC al 20 a les 12 UTC
Vent 6 kt del Oest
Visibilitat 10 km o més
sense núvols per sota de 1500 mi sense presència de cumulonimbus.
Temporalment
l' 19 a les 12 UTC al 19 a les 15 UTC
Vent 18 kt del Sud-Oest
Visibilitat: 8000 m
Núvols disperses a una alçada de 3500 ft

TAF: OISS 190530Z 1906/2012 27006KT CAVOK TEMPO 1912/1915 23018KT 8000 SCT035

Observacions i pronòstics meteorològics de més de 4000 aeroports (METAR i TAF).

Les estacions disponibles són els punts grocs i vermells al mapa.

Posi el ratolí al punt desitjat per veure el nom de l'estació.

Feu clic per veure les observacions i els pronòstics meteorològics.

Per canviar el mapa: feu clic els botons verds amb una creu de color negre per apropar; al botó verd amb un guió per allunyar la imatge; o en les fletxes verdes per a mapes adjacents.


METAR-TAF: